Time;durP1;ratioP1;P1;durP2;ratioP2;P2;SDS_P1;SDS_P2;PMS_P1;PMS_P2;Temp;Humidity;BMP_temperature;BMP_pressure;BME280_temperature;BME280_humidity;BME280_pressure;Samples;Min_cycle;Max_cycle;Signal;HPM_P1;HPM_P2
2021/09/16 00:00:19;;;;;;;33.20;21.67;;;25.40;56.40;;;;;;6194006;28;84741;-64
2021/09/16 00:03:19;;;;;;;32.78;22.13;;;25.40;56.60;;;;;;6183900;28;85276;-64
2021/09/16 00:06:20;;;;;;;29.85;20.80;;;25.30;56.40;;;;;;6170751;28;83413;-64
2021/09/16 00:09:20;;;;;;;32.65;21.27;;;25.40;56.60;;;;;;6191041;28;84181;-64
2021/09/16 00:12:21;;;;;;;31.27;21.58;;;25.30;56.40;;;;;;6198073;28;82820;-64
2021/09/16 00:15:21;;;;;;;30.27;20.55;;;25.40;57.20;;;;;;6194614;28;83005;-64
2021/09/16 00:18:22;;;;;;;36.80;22.77;;;25.40;57.10;;;;;;6186647;28;84842;-65
2021/09/16 00:21:23;;;;;;;33.05;21.98;;;25.40;56.60;;;;;;6179959;28;83121;-64
2021/09/16 00:24:23;;;;;;;33.60;21.70;;;25.40;56.50;;;;;;6173667;28;84244;-64
2021/09/16 00:27:24;;;;;;;32.97;21.17;;;25.30;56.40;;;;;;6172016;28;83927;-64
2021/09/16 00:30:24;;;;;;;31.67;20.35;;;25.30;56.40;;;;;;6178624;28;83193;-64
2021/09/16 00:33:25;;;;;;;32.85;21.38;;;25.30;56.40;;;;;;6179127;28;84328;-65
2021/09/16 00:36:25;;;;;;;30.85;20.08;;;25.30;56.50;;;;;;6183396;28;83214;-64
2021/09/16 00:39:25;;;;;;;32.55;21.25;;;25.30;56.40;;;;;;6181071;28;82855;-64
2021/09/16 00:42:26;;;;;;;34.63;21.65;;;25.30;57.10;;;;;;6193303;28;83258;-65
2021/09/16 00:45:26;;;;;;;30.73;20.98;;;25.30;56.40;;;;;;6192030;28;82966;-65
2021/09/16 00:48:27;;;;;;;34.15;20.17;;;25.30;56.30;;;;;;6188711;28;83264;-65
2021/09/16 00:51:27;;;;;;;39.65;20.48;;;25.30;56.40;;;;;;6182276;28;84050;-65
2021/09/16 00:54:28;;;;;;;30.90;19.23;;;25.30;56.40;;;;;;6184983;28;83346;-65
2021/09/16 00:57:28;;;;;;;32.55;19.92;;;25.30;56.30;;;;;;6176207;28;82975;-65
2021/09/16 01:00:29;;;;;;;28.83;19.38;;;25.30;56.50;;;;;;6189713;28;83360;-64
2021/09/16 01:03:29;;;;;;;29.08;20.00;;;25.30;56.40;;;;;;6182492;28;84046;-64
2021/09/16 01:06:30;;;;;;;30.73;20.63;;;25.30;56.50;;;;;;6171137;28;84110;-64
2021/09/16 01:09:30;;;;;;;28.73;18.65;;;25.30;56.40;;;;;;6184942;28;82908;-64
2021/09/16 01:12:31;;;;;;;33.40;20.77;;;25.30;56.50;;;;;;6194543;28;83042;-64
2021/09/16 01:15:31;;;;;;;29.52;19.88;;;25.30;56.30;;;;;;6180347;28;83644;-64
2021/09/16 01:18:32;;;;;;;29.92;20.35;;;25.30;56.50;;;;;;6179003;28;85736;-64
2021/09/16 01:21:32;;;;;;;29.35;19.83;;;25.30;56.60;;;;;;6178268;28;83170;-64
2021/09/16 01:24:33;;;;;;;31.70;19.80;;;25.30;56.70;;;;;;6180737;28;83760;-64
2021/09/16 01:27:33;;;;;;;33.28;20.40;;;25.30;56.60;;;;;;6188559;28;83150;-64
2021/09/16 01:30:34;;;;;;;30.85;19.95;;;25.30;56.60;;;;;;6180377;28;83518;-64
2021/09/16 01:33:34;;;;;;;29.63;20.38;;;25.20;56.60;;;;;;6182632;28;83070;-64
2021/09/16 01:36:35;;;;;;;29.65;19.35;;;25.20;56.60;;;;;;6185685;28;83522;-64
2021/09/16 01:39:36;;;;;;;31.00;20.85;;;25.20;56.60;;;;;;6182598;28;84006;-64
2021/09/16 01:42:37;;;;;;;27.63;19.00;;;25.20;56.70;;;;;;6179168;28;84134;-64
2021/09/16 01:45:37;;;;;;;29.52;19.70;;;25.20;56.60;;;;;;6172172;28;83065;-64
2021/09/16 01:48:38;;;;;;;30.77;20.20;;;25.20;56.60;;;;;;6180447;28;82802;-64
2021/09/16 01:51:38;;;;;;;33.40;20.25;;;25.20;56.70;;;;;;6185747;28;83928;-64
2021/09/16 01:54:39;;;;;;;33.17;19.80;;;25.20;56.60;;;;;;6194532;28;83257;-64
2021/09/16 01:57:39;;;;;;;32.33;19.10;;;25.20;56.90;;;;;;6181766;28;83091;-64
2021/09/16 02:00:40;;;;;;;28.95;19.92;;;25.20;56.70;;;;;;6180839;28;83754;-64
2021/09/16 02:03:40;;;;;;;30.35;19.02;;;25.20;56.60;;;;;;6179287;28;83345;-64
2021/09/16 02:06:41;;;;;;;28.33;19.67;;;25.20;56.70;;;;;;6178719;28;84691;-63
2021/09/16 02:09:41;;;;;;;33.55;19.98;;;25.20;56.70;;;;;;6180245;28;83435;-64
2021/09/16 02:12:42;;;;;;;32.40;21.00;;;25.20;56.60;;;;;;6179076;28;83172;-64
2021/09/16 02:15:42;;;;;;;27.85;18.77;;;25.20;56.70;;;;;;6179613;28;84190;-64
2021/09/16 02:18:43;;;;;;;30.05;18.83;;;25.20;56.70;;;;;;6176846;28;82951;-64
2021/09/16 02:21:43;;;;;;;29.02;20.73;;;25.20;56.70;;;;;;6176389;28;84055;-64
2021/09/16 02:24:44;;;;;;;31.27;19.38;;;25.20;56.70;;;;;;6178037;28;83126;-64
2021/09/16 02:27:44;;;;;;;28.45;19.95;;;25.20;56.70;;;;;;6180518;28;83461;-63
2021/09/16 02:30:45;;;;;;;31.45;20.55;;;25.20;56.70;;;;;;6176391;28;85705;-64
2021/09/16 02:33:45;;;;;;;32.75;20.23;;;25.20;56.60;;;;;;6179799;28;83414;-63
2021/09/16 02:36:46;;;;;;;31.83;20.65;;;25.20;56.80;;;;;;6179450;28;84018;-63
2021/09/16 02:39:46;;;;;;;34.67;20.85;;;25.20;56.70;;;;;;6180027;28;83354;-63
2021/09/16 02:42:47;;;;;;;31.70;20.52;;;25.20;56.80;;;;;;6178948;28;85183;-63
2021/09/16 02:45:47;;;;;;;30.33;20.45;;;25.20;57.40;;;;;;6175935;28;83112;-63
2021/09/16 02:48:48;;;;;;;29.50;20.00;;;25.20;56.90;;;;;;6175864;28;82864;-63
2021/09/16 02:51:49;;;;;;;35.00;20.88;;;25.20;56.80;;;;;;6179282;28;82939;-63
2021/09/16 02:54:49;;;;;;;32.47;21.40;;;25.10;56.70;;;;;;6178340;28;83108;-64
2021/09/16 02:57:50;;;;;;;33.40;19.98;;;25.10;56.70;;;;;;6168018;28;83247;-64
2021/09/16 03:00:50;;;;;;;34.72;21.75;;;25.10;56.90;;;;;;6176747;28;83300;-64
2021/09/16 03:03:51;;;;;;;32.78;22.00;;;25.20;56.90;;;;;;6179692;28;83023;-64
2021/09/16 03:06:51;;;;;;;31.27;21.20;;;25.20;57.00;;;;;;6180881;28;83514;-64
2021/09/16 03:09:52;;;;;;;32.20;21.27;;;25.10;56.90;;;;;;6180081;28;83118;-65
2021/09/16 03:12:52;;;;;;;37.97;23.05;;;25.10;57.00;;;;;;6171259;28;83289;-64
2021/09/16 03:15:53;;;;;;;34.92;21.98;;;25.10;56.90;;;;;;6178977;28;84288;-64
2021/09/16 03:18:53;;;;;;;31.05;21.83;;;25.10;57.00;;;;;;6178682;28;83275;-64
2021/09/16 03:21:54;;;;;;;33.22;21.73;;;25.10;56.80;;;;;;6177205;28;82829;-64
2021/09/16 03:24:54;;;;;;;32.80;21.75;;;25.10;57.60;;;;;;6173580;28;83979;-64
2021/09/16 03:27:54;;;;;;;34.88;22.90;;;25.10;56.90;;;;;;6176361;28;90806;-64
2021/09/16 03:30:55;;;;;;;32.38;22.23;;;25.10;57.60;;;;;;6183693;28;86163;-64
2021/09/16 03:33:55;;;;;;;37.53;23.38;;;25.10;56.90;;;;;;6185061;28;83193;-64
2021/09/16 03:36:56;;;;;;;35.17;23.00;;;25.10;56.80;;;;;;6181474;28;83162;-63
2021/09/16 03:39:56;;;;;;;35.17;22.75;;;25.10;56.90;;;;;;6181844;28;83597;-62
2021/09/16 03:42:57;;;;;;;38.85;24.30;;;25.10;56.90;;;;;;6179218;28;83158;-63
2021/09/16 03:45:57;;;;;;;37.10;23.73;;;25.10;56.90;;;;;;6182311;28;84128;-63
2021/09/16 03:48:58;;;;;;;32.55;22.23;;;25.10;57.10;;;;;;6184359;28;82963;-62
2021/09/16 03:51:58;;;;;;;36.88;24.08;;;25.10;57.00;;;;;;6181835;28;83546;-63
2021/09/16 03:54:59;;;;;;;36.92;23.48;;;25.10;57.10;;;;;;6181070;28;83199;-63
2021/09/16 03:57:59;;;;;;;36.45;22.17;;;25.10;57.10;;;;;;6181902;28;84172;-64
2021/09/16 04:01:00;;;;;;;34.28;22.45;;;25.10;57.10;;;;;;6182244;28;84162;-64
2021/09/16 04:04:00;;;;;;;38.30;24.08;;;25.10;57.00;;;;;;6181857;28;83102;-64
2021/09/16 04:07:01;;;;;;;39.58;25.08;;;25.10;57.20;;;;;;6184329;28;83076;-64
2021/09/16 04:10:01;;;;;;;34.92;24.40;;;25.10;57.10;;;;;;6180857;28;85561;-62
2021/09/16 04:13:02;;;;;;;42.33;24.50;;;25.10;57.10;;;;;;6181805;28;82946;-66
2021/09/16 04:16:02;;;;;;;30.30;21.50;;;25.10;57.20;;;;;;6181051;28;84531;-64
2021/09/16 04:19:02;;;;;;;31.33;21.08;;;25.10;57.30;;;;;;6182719;28;83475;-64
2021/09/16 04:22:03;;;;;;;34.92;21.50;;;25.10;57.90;;;;;;6182323;28;83067;-64
2021/09/16 04:25:03;;;;;;;31.10;20.50;;;25.20;57.90;;;;;;6182363;28;84070;-64
2021/09/16 04:28:04;;;;;;;29.48;19.90;;;25.20;57.30;;;;;;6182694;28;83624;-64
2021/09/16 04:31:04;;;;;;;27.23;19.00;;;25.20;58.80;;;;;;6177327;28;85643;-63
2021/09/16 04:34:05;;;;;;;31.83;18.83;;;25.20;58.40;;;;;;6180708;28;84721;-63
2021/09/16 04:37:05;;;;;;;32.97;19.98;;;25.30;58.80;;;;;;6180293;28;85180;-64
2021/09/16 04:40:06;;;;;;;29.88;20.05;;;25.30;58.40;;;;;;6181002;28;83259;-64
2021/09/16 04:43:06;;;;;;;28.20;18.70;;;25.30;60.50;;;;;;6181851;28;86345;-62
2021/09/16 04:46:07;;;;;;;31.45;19.95;;;25.30;58.60;;;;;;6179799;28;83279;-65
2021/09/16 04:49:07;;;;;;;30.73;18.95;;;25.30;58.70;;;;;;6178533;28;82961;-65
2021/09/16 04:52:08;;;;;;;31.98;19.52;;;25.30;58.70;;;;;;6180211;28;82820;-65
2021/09/16 04:55:08;;;;;;;28.30;18.50;;;25.30;58.80;;;;;;6181300;28;84332;-64
2021/09/16 04:58:09;;;;;;;27.48;19.75;;;25.30;58.70;;;;;;6172972;28;84375;-64
2021/09/16 05:01:09;;;;;;;30.02;20.48;;;25.30;59.10;;;;;;6174754;28;85121;-64
2021/09/16 05:04:10;;;;;;;31.92;20.80;;;25.30;59.10;;;;;;6179652;28;84308;-64
2021/09/16 05:07:10;;;;;;;34.05;21.20;;;25.30;59.30;;;;;;6178616;28;84121;-64
2021/09/16 05:10:11;;;;;;;34.42;21.35;;;25.30;58.90;;;;;;6174483;28;83348;-65
2021/09/16 05:13:11;;;;;;;35.17;22.40;;;25.30;58.30;;;;;;6182300;28;83608;-64
2021/09/16 05:16:12;;;;;;;34.75;23.27;;;25.40;58.90;;;;;;6169055;28;83989;-65
2021/09/16 05:19:12;;;;;;;38.00;24.20;;;25.40;59.00;;;;;;6178552;28;84791;-65
2021/09/16 05:22:13;;;;;;;35.67;24.83;;;25.40;59.20;;;;;;6179726;28;83450;-63
2021/09/16 05:25:13;;;;;;;39.60;24.58;;;25.40;59.40;;;;;;6157230;28;84373;-63
2021/09/16 05:28:14;;;;;;;38.33;25.40;;;25.40;59.70;;;;;;6176274;28;85684;-64
2021/09/16 05:31:14;;;;;;;41.20;27.08;;;25.40;59.60;;;;;;6180501;28;83173;-66
2021/09/16 05:34:14;;;;;;;40.25;25.67;;;25.40;59.10;;;;;;6179866;28;83194;-67
2021/09/16 05:37:15;;;;;;;41.65;26.60;;;25.40;59.00;;;;;;6179961;28;83344;-65
2021/09/16 05:40:16;;;;;;;39.88;26.08;;;25.40;58.90;;;;;;6168792;28;85258;-67
2021/09/16 05:43:16;;;;;;;40.90;27.52;;;25.40;58.90;;;;;;6179251;28;83025;-65
2021/09/16 05:46:18;;;;;;;42.75;26.60;;;25.40;58.70;;;;;;6178154;28;84259;-65
2021/09/16 05:49:18;;;;;;;43.33;26.40;;;25.40;59.00;;;;;;6175420;28;83395;-67
2021/09/16 05:52:19;;;;;;;42.92;26.10;;;25.30;59.00;;;;;;6179450;28;83170;-67
2021/09/16 05:55:19;;;;;;;44.60;28.40;;;25.30;58.80;;;;;;6178673;28;83146;-65
2021/09/16 05:58:20;;;;;;;50.67;31.08;;;25.40;58.90;;;;;;6178809;28;88923;-67
2021/09/16 06:01:20;;;;;;;49.58;30.60;;;25.40;59.00;;;;;;6176764;28;83531;-65
2021/09/16 06:04:20;;;;;;;52.88;31.67;;;25.40;58.80;;;;;;6178485;28;83965;-63
2021/09/16 06:07:21;;;;;;;55.13;31.83;;;25.40;59.00;;;;;;6178322;28;84578;-65
2021/09/16 06:10:21;;;;;;;47.28;29.65;;;25.40;59.00;;;;;;6182789;28;84340;-65
2021/09/16 06:13:22;;;;;;;48.20;31.08;;;25.40;59.00;;;;;;6172458;28;83364;-65
2021/09/16 06:16:22;;;;;;;50.22;30.67;;;25.40;59.00;;;;;;6177004;28;82883;-65
2021/09/16 06:19:23;;;;;;;47.83;30.00;;;25.40;58.90;;;;;;6177491;28;83690;-64
2021/09/16 06:22:23;;;;;;;54.45;30.77;;;25.40;58.60;;;;;;6179608;28;83011;-64
2021/09/16 06:25:24;;;;;;;51.25;29.52;;;25.40;58.60;;;;;;6179521;28;83104;-64
2021/09/16 06:28:24;;;;;;;50.17;29.75;;;25.50;58.50;;;;;;6173475;28;83391;-64
2021/09/16 06:31:25;;;;;;;51.90;29.27;;;25.50;59.70;;;;;;6180932;28;83468;-64
2021/09/16 06:34:25;;;;;;;53.80;30.20;;;25.50;58.80;;;;;;6167675;28;84134;-66
2021/09/16 06:37:26;;;;;;;50.88;30.27;;;25.50;59.10;;;;;;6175436;28;84433;-65
2021/09/16 06:40:26;;;;;;;46.42;29.60;;;25.50;58.80;;;;;;6175810;28;83777;-64
2021/09/16 06:43:27;;;;;;;46.40;28.73;;;25.50;59.50;;;;;;6172562;28;85500;-66
2021/09/16 06:46:27;;;;;;;52.65;29.73;;;25.50;59.60;;;;;;6177421;28;83114;-65
2021/09/16 06:49:28;;;;;;;48.28;28.85;;;25.50;59.40;;;;;;6179525;28;83086;-66
2021/09/16 06:52:29;;;;;;;48.45;30.25;;;25.50;59.10;;;;;;6178473;28;83541;-66
2021/09/16 06:55:29;;;;;;;55.90;29.90;;;25.50;58.80;;;;;;6178576;28;84072;-65
2021/09/16 06:58:30;;;;;;;88.78;40.72;;;25.50;59.60;;;;;;6173358;28;87038;-65
2021/09/16 07:01:30;;;;;;;185.88;77.72;;;25.50;58.80;;;;;;6178532;28;83045;-65
2021/09/16 07:04:31;;;;;;;349.65;139.82;;;25.50;58.80;;;;;;6168208;28;83280;-66
2021/09/16 07:07:31;;;;;;;484.80;187.13;;;25.50;58.60;;;;;;6175953;28;85935;-66
2021/09/16 07:10:32;;;;;;;511.15;205.73;;;25.50;59.10;;;;;;6173484;28;86319;-65
2021/09/16 07:13:32;;;;;;;606.13;258.25;;;25.50;59.30;;;;;;6173131;28;85779;-64
2021/09/16 07:16:32;;;;;;;646.60;282.23;;;25.50;59.50;;;;;;6174026;28;87225;-64
2021/09/16 07:19:33;;;;;;;712.47;319.48;;;25.50;59.90;;;;;;6168280;28;85582;-64
2021/09/16 07:22:33;;;;;;;748.88;340.55;;;25.50;60.00;;;;;;6174462;28;85381;-64
2021/09/16 07:25:34;;;;;;;730.30;323.33;;;25.50;60.00;;;;;;6174354;28;90159;-65
2021/09/16 07:28:35;;;;;;;561.88;238.30;;;25.50;60.00;;;;;;6174426;28;85624;-65
2021/09/16 07:31:36;;;;;;;551.55;227.40;;;25.50;60.10;;;;;;6170699;28;85995;-65
2021/09/16 07:34:36;;;;;;;486.80;197.63;;;25.60;60.20;;;;;;6174290;28;86540;-66
2021/09/16 07:37:37;;;;;;;469.00;181.15;;;25.50;59.60;;;;;;6175543;28;86535;-65
2021/09/16 07:40:37;;;;;;;420.27;172.43;;;25.50;60.00;;;;;;6173184;28;85801;-66
2021/09/16 07:43:38;;;;;;;402.23;157.73;;;25.50;60.10;;;;;;6161797;28;85807;-65
2021/09/16 07:46:38;;;;;;;382.67;150.90;;;25.50;60.20;;;;;;6172077;28;85576;-66
2021/09/16 07:49:39;;;;;;;368.83;144.23;;;25.60;60.40;;;;;;6173783;28;85777;-66
2021/09/16 07:52:39;;;;;;;337.42;135.05;;;25.60;60.40;;;;;;6157493;28;88586;-66
2021/09/16 07:55:40;;;;;;;299.48;123.95;;;25.50;60.20;;;;;;6173785;28;85658;-65
2021/09/16 07:58:42;;;;;;;281.27;116.13;;;25.50;60.10;;;;;;6173511;28;86623;-65
2021/09/16 08:01:43;;;;;;;282.42;114.00;;;25.50;60.30;;;;;;6164153;28;86559;-66
2021/09/16 08:04:43;;;;;;;247.00;104.65;;;25.50;60.30;;;;;;6164217;28;86297;-66
2021/09/16 08:07:44;;;;;;;243.48;98.47;;;25.50;60.60;;;;;;6171600;28;86805;-66
2021/09/16 08:10:44;;;;;;;212.52;91.95;;;25.50;60.60;;;;;;6177673;28;84112;-67
2021/09/16 08:13:45;;;;;;;212.38;88.20;;;25.60;60.70;;;;;;6179163;28;83530;-68
2021/09/16 08:16:45;;;;;;;184.70;82.38;;;25.60;61.00;;;;;;6178582;28;84375;-67
2021/09/16 08:19:46;;;;;;;176.80;77.20;;;25.60;61.10;;;;;;6179020;28;83354;-67
2021/09/16 08:22:46;;;;;;;172.48;73.88;;;25.60;61.30;;;;;;6174405;28;83415;-66
2021/09/16 08:25:47;;;;;;;155.50;68.68;;;25.60;61.40;;;;;;6176226;28;83036;-67
2021/09/16 08:28:47;;;;;;;151.25;64.88;;;25.60;61.50;;;;;;6183423;28;84370;-67
2021/09/16 08:31:48;;;;;;;150.23;65.82;;;25.70;61.60;;;;;;6176070;28;84375;-68
2021/09/16 08:34:48;;;;;;;148.05;62.72;;;25.70;61.50;;;;;;6177118;28;83253;-67
2021/09/16 08:37:49;;;;;;;140.98;57.88;;;25.70;61.60;;;;;;6175231;28;84232;-66
2021/09/16 08:40:49;;;;;;;129.65;55.17;;;25.80;61.60;;;;;;6174343;28;83076;-67
2021/09/16 08:43:50;;;;;;;118.85;52.25;;;25.80;61.70;;;;;;6171744;28;83480;-66
2021/09/16 08:46:51;;;;;;;116.80;50.90;;;25.80;61.50;;;;;;6175606;28;83021;-67
2021/09/16 08:49:51;;;;;;;114.32;50.55;;;25.80;61.60;;;;;;6174092;28;85077;-66
2021/09/16 08:52:52;;;;;;;105.03;47.33;;;25.80;61.40;;;;;;6174874;28;83892;-66
2021/09/16 08:55:52;;;;;;;93.38;44.97;;;25.80;61.60;;;;;;6179937;28;83110;-66
2021/09/16 08:58:53;;;;;;;95.72;42.28;;;25.80;61.70;;;;;;6179784;28;84256;-65
2021/09/16 09:01:53;;;;;;;82.10;38.30;;;25.80;61.50;;;;;;6169858;28;83015;-65
2021/09/16 09:04:54;;;;;;;85.85;36.63;;;25.70;61.30;;;;;;6177788;28;83390;-66
2021/09/16 09:07:54;;;;;;;77.88;36.20;;;25.80;61.20;;;;;;6171942;28;83262;-66
2021/09/16 09:10:55;;;;;;;69.40;34.42;;;25.80;61.00;;;;;;6180329;28;83784;-66
2021/09/16 09:13:55;;;;;;;71.35;34.22;;;25.80;60.80;;;;;;6165074;28;83660;-65
2021/09/16 09:16:56;;;;;;;61.90;31.50;;;25.80;60.70;;;;;;6180369;28;82980;-65
2021/09/16 09:19:58;;;;;;;64.35;31.27;;;25.80;60.70;;;;;;6178008;28;83414;-65
2021/09/16 09:22:59;;;;;;;54.92;28.15;;;25.80;60.60;;;;;;6179374;28;83251;-65
2021/09/16 09:25:59;;;;;;;55.50;28.58;;;25.80;60.50;;;;;;6179624;28;83085;-64
2021/09/16 09:29:00;;;;;;;51.42;27.58;;;25.80;60.40;;;;;;6172792;28;83288;-65
2021/09/16 09:32:00;;;;;;;49.80;27.13;;;25.80;60.40;;;;;;6171446;28;83162;-64
2021/09/16 09:35:01;;;;;;;47.58;25.67;;;25.70;60.20;;;;;;6171922;28;83291;-64
2021/09/16 09:38:01;;;;;;;48.80;24.50;;;25.80;60.20;;;;;;6177753;28;83376;-66
2021/09/16 09:41:02;;;;;;;48.33;23.20;;;25.70;60.10;;;;;;6179442;28;83345;-65
2021/09/16 09:44:03;;;;;;;44.15;24.00;;;25.70;59.90;;;;;;6179862;28;82868;-65
2021/09/16 09:47:03;;;;;;;43.75;24.83;;;25.70;60.10;;;;;;6179176;28;84031;-65
2021/09/16 09:50:04;;;;;;;40.67;24.65;;;25.70;60.10;;;;;;6177590;28;84220;-66
2021/09/16 09:53:04;;;;;;;54.33;29.92;;;25.70;60.40;;;;;;6178317;28;85206;-66
2021/09/16 09:56:04;;;;;;;69.15;35.72;;;25.70;60.30;;;;;;6174421;28;82978;-64
2021/09/16 09:59:05;;;;;;;75.40;45.70;;;25.70;60.70;;;;;;6171518;28;86066;-65
2021/09/16 10:02:05;;;;;;;77.38;43.42;;;25.70;61.50;;;;;;6165952;28;84248;-66
2021/09/16 10:05:06;;;;;;;75.95;44.13;;;25.70;61.70;;;;;;6176801;28;83558;-65
2021/09/16 10:08:06;;;;;;;78.97;49.10;;;25.70;61.90;;;;;;6178403;28;84509;-67
2021/09/16 10:11:07;;;;;;;84.35;54.42;;;25.70;61.70;;;;;;6179463;28;84110;-68
2021/09/16 10:14:07;;;;;;;95.93;61.85;;;25.70;61.70;;;;;;6171439;28;83433;-68
2021/09/16 10:17:08;;;;;;;89.07;61.90;;;25.80;61.80;;;;;;6179161;28;83058;-67
2021/09/16 10:20:10;;;;;;;86.95;59.92;;;25.80;62.10;;;;;;6176402;28;84289;-67
2021/09/16 10:23:10;;;;;;;84.15;57.40;;;25.80;61.60;;;;;;6182024;28;84259;-67
2021/09/16 10:26:11;;;;;;;81.03;57.05;;;25.80;61.50;;;;;;6178194;28;84207;-67
2021/09/16 10:29:11;;;;;;;76.90;54.95;;;25.80;61.40;;;;;;6177707;28;83710;-68
2021/09/16 10:32:12;;;;;;;82.65;51.95;;;25.90;61.30;;;;;;6179539;28;83190;-68
2021/09/16 10:35:12;;;;;;;68.43;48.88;;;25.90;61.30;;;;;;6178989;28;83185;-67
2021/09/16 10:38:12;;;;;;;62.72;45.97;;;25.80;61.10;;;;;;6177586;28;84356;-67
2021/09/16 10:41:13;;;;;;;60.33;43.42;;;25.90;61.40;;;;;;6174504;28;84660;-68
2021/09/16 10:44:14;;;;;;;58.55;42.63;;;25.80;61.30;;;;;;6177303;28;83289;-66
2021/09/16 10:47:14;;;;;;;55.88;39.13;;;25.90;61.10;;;;;;6173145;28;83446;-65
2021/09/16 10:50:15;;;;;;;48.10;31.45;;;25.90;61.10;;;;;;6168183;28;85329;-66
2021/09/16 10:53:15;;;;;;;43.17;30.65;;;25.90;60.50;;;;;;6171307;28;82760;-66
2021/09/16 10:56:16;;;;;;;41.25;29.80;;;25.80;61.00;;;;;;6178289;28;83334;-65
2021/09/16 10:59:17;;;;;;;40.75;28.75;;;25.80;60.90;;;;;;6178914;28;83290;-65
2021/09/16 11:02:19;;;;;;;40.13;27.73;;;25.80;61.20;;;;;;6178809;28;83444;-65
2021/09/16 11:05:20;;;;;;;43.03;26.90;;;25.80;61.30;;;;;;6177950;28;83259;-65
2021/09/16 11:08:21;;;;;;;35.65;26.35;;;25.80;61.80;;;;;;6171096;28;83366;-65
2021/09/16 11:11:21;;;;;;;33.70;23.52;;;25.80;61.40;;;;;;6178952;28;86538;-66
2021/09/16 11:14:22;;;;;;;29.35;21.50;;;25.80;61.40;;;;;;6167258;28;83042;-65
2021/09/16 11:17:22;;;;;;;30.63;19.27;;;25.80;61.10;;;;;;6164317;28;83321;-66
2021/09/16 11:20:23;;;;;;;28.25;19.13;;;25.80;60.30;;;;;;6172941;28;83090;-66
2021/09/16 11:23:23;;;;;;;26.45;19.30;;;25.80;60.60;;;;;;6168220;28;85915;-66
2021/09/16 11:26:27;;;;;;;27.67;19.13;;;25.80;60.80;;;;;;6177675;28;83130;-66
2021/09/16 11:29:27;;;;;;;28.27;18.00;;;25.80;61.50;;;;;;6176313;28;84373;-66
2021/09/16 11:32:27;;;;;;;26.08;18.17;;;25.90;60.60;;;;;;6175791;28;83414;-65
2021/09/16 11:35:28;;;;;;;24.55;18.02;;;25.90;60.60;;;;;;6179530;28;82814;-66
2021/09/16 11:38:28;;;;;;;28.65;17.75;;;25.90;60.60;;;;;;6180036;28;83351;-66
2021/09/16 11:41:29;;;;;;;24.65;17.67;;;25.90;60.40;;;;;;6174778;28;84381;-65
2021/09/16 11:44:30;;;;;;;25.50;18.02;;;25.90;60.70;;;;;;6169125;28;83842;-66
2021/09/16 11:47:30;;;;;;;28.65;18.77;;;25.90;60.80;;;;;;6180912;28;83461;-66
2021/09/16 11:50:31;;;;;;;26.48;17.50;;;25.90;60.80;;;;;;6178438;28;83307;-65
2021/09/16 11:53:31;;;;;;;34.13;18.02;;;25.90;60.80;;;;;;6180010;28;83319;-65
2021/09/16 11:56:32;;;;;;;25.70;17.27;;;25.90;60.70;;;;;;6172528;28;83366;-66
2021/09/16 11:59:32;;;;;;;25.63;16.13;;;25.90;60.50;;;;;;6173437;28;84450;-65
2021/09/16 12:02:33;;;;;;;21.08;15.43;;;25.90;60.50;;;;;;6182200;28;83270;-64
2021/09/16 12:05:33;;;;;;;21.33;16.23;;;25.90;60.70;;;;;;6176699;28;83194;-65
2021/09/16 12:08:34;;;;;;;22.95;15.93;;;25.90;60.80;;;;;;6182301;28;83141;-64
2021/09/16 12:11:34;;;;;;;22.85;14.95;;;25.90;60.90;;;;;;6174238;28;83447;-65
2021/09/16 12:14:35;;;;;;;21.67;15.55;;;25.90;61.00;;;;;;6176304;28;84198;-65
2021/09/16 12:17:35;;;;;;;19.83;15.35;;;25.90;61.00;;;;;;6176430;28;84098;-64
2021/09/16 12:20:36;;;;;;;26.00;16.20;;;25.90;61.10;;;;;;6179477;28;84017;-64
2021/09/16 12:23:36;;;;;;;22.92;15.68;;;25.90;61.10;;;;;;6173000;28;84190;-64
2021/09/16 12:26:37;;;;;;;19.63;15.10;;;26.00;61.10;;;;;;6173484;28;83344;-65
2021/09/16 12:29:38;;;;;;;27.48;15.82;;;26.00;61.40;;;;;;6169659;28;83100;-65
2021/09/16 12:32:39;;;;;;;20.73;15.15;;;26.00;61.20;;;;;;6168375;28;83132;-65
2021/09/16 12:35:39;;;;;;;20.60;14.57;;;26.00;61.00;;;;;;6170553;28;84298;-64
2021/09/16 12:38:40;;;;;;;23.63;16.38;;;26.00;61.10;;;;;;6169130;28;83154;-65
2021/09/16 12:41:41;;;;;;;19.60;14.98;;;26.00;60.70;;;;;;6176421;28;83067;-66
2021/09/16 12:44:42;;;;;;;20.42;15.07;;;26.00;60.90;;;;;;6171586;28;83555;-65
2021/09/16 12:47:42;;;;;;;22.92;14.90;;;26.00;61.00;;;;;;6180635;28;83021;-66
2021/09/16 12:50:43;;;;;;;20.92;14.52;;;26.00;61.00;;;;;;6177487;28;83286;-65
2021/09/16 12:53:43;;;;;;;22.98;14.40;;;26.00;61.00;;;;;;6178159;28;84136;-66
2021/09/16 12:56:44;;;;;;;18.45;13.60;;;26.00;61.10;;;;;;6168261;28;83314;-65
2021/09/16 12:59:44;;;;;;;17.17;14.07;;;26.00;60.90;;;;;;6166830;28;82980;-64
2021/09/16 13:02:45;;;;;;;18.77;14.52;;;26.00;61.60;;;;;;6177426;28;84433;-64
2021/09/16 13:05:45;;;;;;;21.17;15.27;;;26.00;60.90;;;;;;6179816;28;83082;-65
2021/09/16 13:08:46;;;;;;;19.13;15.05;;;26.00;60.90;;;;;;6179374;28;83496;-66
2021/09/16 13:11:46;;;;;;;20.83;14.63;;;26.00;61.00;;;;;;6180691;28;83417;-66
2021/09/16 13:14:47;;;;;;;19.02;13.68;;;26.00;61.10;;;;;;6181876;28;83753;-65
2021/09/16 13:17:47;;;;;;;17.58;14.52;;;26.00;61.30;;;;;;6175240;28;83091;-65
2021/09/16 13:20:48;;;;;;;21.33;13.98;;;26.00;60.90;;;;;;6175206;28;85543;-65
2021/09/16 13:23:49;;;;;;;23.20;13.95;;;26.00;60.80;;;;;;6176208;28;83843;-65
2021/09/16 13:26:49;;;;;;;17.88;13.48;;;26.00;60.70;;;;;;6177009;28;83480;-66
2021/09/16 13:29:50;;;;;;;21.88;13.70;;;26.00;60.80;;;;;;6175255;28;85377;-66
2021/09/16 13:32:50;;;;;;;17.10;13.68;;;26.00;60.80;;;;;;6183536;28;84270;-66
2021/09/16 13:35:51;;;;;;;17.10;13.60;;;26.00;60.80;;;;;;6178243;28;83107;-66
2021/09/16 13:38:51;;;;;;;17.58;13.32;;;26.00;61.00;;;;;;6175070;28;84070;-68
2021/09/16 13:41:52;;;;;;;19.10;14.15;;;26.00;61.00;;;;;;6181943;28;83041;-68
2021/09/16 13:44:52;;;;;;;19.33;13.93;;;26.10;61.40;;;;;;6181791;28;83501;-67
2021/09/16 13:47:53;;;;;;;18.92;13.43;;;26.00;61.10;;;;;;6167207;28;83936;-68
2021/09/16 13:50:53;;;;;;;20.55;13.98;;;26.00;61.10;;;;;;6177591;28;84668;-65
2021/09/16 13:53:55;;;;;;;18.65;14.95;;;26.00;60.90;;;;;;6178397;28;83716;-66
2021/09/16 13:56:55;;;;;;;16.92;13.85;;;26.00;60.80;;;;;;6175726;28;84138;-66
2021/09/16 13:59:56;;;;;;;15.85;12.90;;;26.00;60.60;;;;;;6178428;28;83164;-64
2021/09/16 14:02:56;;;;;;;17.25;12.57;;;26.00;60.80;;;;;;6182373;28;84556;-64
2021/09/16 14:05:56;;;;;;;22.13;14.00;;;26.00;60.60;;;;;;6178275;28;83314;-65
2021/09/16 14:08:57;;;;;;;20.45;13.45;;;26.00;60.90;;;;;;6178780;28;86238;-64
2021/09/16 14:11:57;;;;;;;20.80;13.75;;;26.00;61.00;;;;;;6180286;28;83850;-65
2021/09/16 14:14:58;;;;;;;17.15;13.48;;;26.00;60.90;;;;;;6178286;28;83573;-63
2021/09/16 14:17:58;;;;;;;18.23;13.70;;;26.00;61.10;;;;;;6176452;28;83107;-63
2021/09/16 14:20:59;;;;;;;19.63;14.13;;;26.00;61.00;;;;;;6179211;28;84033;-64
2021/09/16 14:23:59;;;;;;;19.35;14.40;;;25.90;61.70;;;;;;6179800;28;82897;-64
2021/09/16 14:27:00;;;;;;;17.35;13.50;;;25.90;61.80;;;;;;6179500;28;83982;-65
2021/09/16 14:30:00;;;;;;;18.90;13.27;;;25.90;61.30;;;;;;6182824;28;83559;-65
2021/09/16 14:33:01;;;;;;;17.42;13.73;;;26.00;61.30;;;;;;6166918;28;84554;-66
2021/09/16 14:36:01;;;;;;;15.90;12.75;;;26.00;61.60;;;;;;6170956;28;83193;-64
2021/09/16 14:39:02;;;;;;;19.50;13.73;;;26.00;61.00;;;;;;6176120;28;83402;-65
2021/09/16 14:42:02;;;;;;;17.58;12.90;;;26.00;61.00;;;;;;6177414;28;82831;-64
2021/09/16 14:45:03;;;;;;;21.42;14.18;;;26.00;60.90;;;;;;6175196;28;83649;-64
2021/09/16 14:48:03;;;;;;;22.77;14.98;;;26.00;61.00;;;;;;6172983;28;85711;-64
2021/09/16 14:51:04;;;;;;;21.33;15.25;;;26.00;61.00;;;;;;6176452;28;83318;-63
2021/09/16 14:54:04;;;;;;;27.92;17.63;;;26.00;61.00;;;;;;6175320;28;83478;-64
2021/09/16 14:57:05;;;;;;;30.52;20.13;;;26.00;61.00;;;;;;6176215;28;83312;-64
2021/09/16 15:00:05;;;;;;;44.92;26.77;;;26.00;61.10;;;;;;6175540;28;84044;-64
2021/09/16 15:03:06;;;;;;;48.08;29.23;;;25.90;61.40;;;;;;6172050;28;85279;-64
2021/09/16 15:06:06;;;;;;;49.70;31.10;;;25.90;61.50;;;;;;6173508;28;84418;-64
2021/09/16 15:09:07;;;;;;;57.13;35.00;;;25.90;61.70;;;;;;6172113;28;83767;-65
2021/09/16 15:12:07;;;;;;;60.47;34.13;;;25.90;62.20;;;;;;6165717;28;83286;-66